Time;durP1;ratioP1;P1;durP2;ratioP2;P2;SDS_P1;SDS_P2;PMS_P1;PMS_P2;Temp;Humidity;BMP_temperature;BMP_pressure;BME280_temperature;BME280_humidity;BME280_pressure;Samples;Min_cycle;Max_cycle;Signal;HPM_P1;HPM_P2
2022/03/26 00:01:23;;;;;;;;;24.50;18.50;;;;;;;;5091467;27;46154;-72
2022/03/26 00:03:48;;;;;;;;;18.75;15.25;;;;;;;;5093878;27;45382;-72
2022/03/26 00:06:14;;;;;;;;;17.50;14.75;;;;;;;;5095283;27;46081;-72
2022/03/26 00:08:39;;;;;;;;;20.00;14.75;;;;;;;;5094737;27;45515;-72
2022/03/26 00:11:04;;;;;;;;;15.50;15.50;;;;;;;;5097364;27;45386;-71
2022/03/26 00:13:29;;;;;;;;;16.25;13.75;;;;;;;;5095435;27;45301;-72
2022/03/26 00:15:55;;;;;;;;;15.50;14.25;;;;;;;;5093739;27;46309;-70
2022/03/26 00:18:20;;;;;;;;;17.00;14.50;;;;;;;;5093009;27;45299;-72
2022/03/26 00:20:45;;;;;;;;;17.50;17.50;;;;;;;;5095820;27;46156;-72
2022/03/26 00:23:11;;;;;;;;;16.75;16.25;;;;;;;;5097304;27;45519;-71
2022/03/26 00:25:37;;;;;;;;;18.25;16.50;;;;;;;;5092105;27;46243;-72
2022/03/26 00:28:02;;;;;;;;;15.75;14.25;;;;;;;;5093297;27;45352;-72
2022/03/26 00:30:27;;;;;;;;;17.00;14.75;;;;;;;;5093010;27;45373;-71
2022/03/26 00:32:53;;;;;;;;;19.25;16.75;;;;;;;;5094691;27;45283;-72
2022/03/26 00:35:18;;;;;;;;;18.25;16.00;;;;;;;;5097057;27;46170;-71
2022/03/26 00:37:43;;;;;;;;;15.25;14.75;;;;;;;;5093045;27;45437;-72
2022/03/26 00:40:09;;;;;;;;;15.25;13.50;;;;;;;;5093067;27;45354;-71
2022/03/26 00:42:34;;;;;;;;;16.25;15.25;;;;;;;;5092755;27;45407;-72
2022/03/26 00:44:59;;;;;;;;;14.75;13.00;;;;;;;;5094729;27;45313;-72
2022/03/26 00:47:24;;;;;;;;;19.25;17.75;;;;;;;;5096646;27;45271;-72
2022/03/26 00:49:51;;;;;;;;;18.00;18.00;;;;;;;;5093665;27;45255;-72
2022/03/26 00:52:16;;;;;;;;;13.50;13.50;;;;;;;;5092426;27;45494;-71
2022/03/26 00:54:41;;;;;;;;;15.50;15.00;;;;;;;;5092453;27;46106;-71
2022/03/26 00:57:06;;;;;;;;;15.75;15.50;;;;;;;;5093144;27;45710;-71
2022/03/26 00:59:32;;;;;;;;;14.25;13.00;;;;;;;;5095618;27;45604;-71
2022/03/26 01:01:58;;;;;;;;;15.25;14.25;;;;;;;;5095552;27;45507;-72
2022/03/26 01:04:23;;;;;;;;;14.75;12.50;;;;;;;;5093560;27;45442;-71
2022/03/26 01:06:48;;;;;;;;;18.50;15.00;;;;;;;;5092694;27;45473;-71
2022/03/26 01:09:13;;;;;;;;;18.75;16.25;;;;;;;;5094135;27;45284;-71
2022/03/26 01:11:39;;;;;;;;;17.50;16.25;;;;;;;;5095389;27;45707;-72
2022/03/26 01:14:04;;;;;;;;;14.50;14.00;;;;;;;;5095717;27;46301;-70
2022/03/26 01:16:30;;;;;;;;;20.50;16.25;;;;;;;;5092696;27;45479;-70
2022/03/26 01:18:56;;;;;;;;;17.75;15.75;;;;;;;;5091914;27;45381;-71
2022/03/26 01:21:21;;;;;;;;;16.75;14.75;;;;;;;;5094131;27;45465;-70
2022/03/26 01:23:47;;;;;;;;;16.75;15.75;;;;;;;;5092699;27;46899;-71
2022/03/26 01:26:13;;;;;;;;;17.50;17.50;;;;;;;;5095361;27;45358;-72
2022/03/26 01:28:38;;;;;;;;;17.00;17.00;;;;;;;;5091614;27;45564;-71
2022/03/26 01:31:04;;;;;;;;;19.50;16.50;;;;;;;;5091405;27;45939;-72
2022/03/26 01:33:29;;;;;;;;;15.75;14.50;;;;;;;;5087856;27;46140;-71
2022/03/26 01:35:54;;;;;;;;;20.50;16.50;;;;;;;;5092966;27;46035;-71
2022/03/26 01:38:19;;;;;;;;;19.50;17.25;;;;;;;;5095924;27;45339;-69
2022/03/26 01:40:45;;;;;;;;;19.75;17.25;;;;;;;;5094063;27;45638;-72
2022/03/26 01:43:11;;;;;;;;;18.25;16.00;;;;;;;;5095012;27;45829;-73
2022/03/26 01:45:36;;;;;;;;;21.00;17.25;;;;;;;;5091563;27;45316;-72
2022/03/26 01:48:01;;;;;;;;;19.00;17.00;;;;;;;;5091927;27;45482;-71
2022/03/26 01:50:27;;;;;;;;;23.50;22.50;;;;;;;;5095374;27;45328;-71
2022/03/26 01:52:53;;;;;;;;;13.00;11.50;;;;;;;;5092483;27;45463;-73
2022/03/26 01:55:19;;;;;;;;;19.25;18.00;;;;;;;;5089308;27;45483;-73
2022/03/26 01:57:44;;;;;;;;;16.50;16.00;;;;;;;;5093711;27;45341;-72
2022/03/26 02:00:11;;;;;;;;;19.75;18.75;;;;;;;;5091633;27;45460;-73
2022/03/26 02:02:37;;;;;;;;;19.50;17.00;;;;;;;;5094563;27;46116;-73
2022/03/26 02:05:02;;;;;;;;;18.00;17.25;;;;;;;;5093252;27;45299;-73
2022/03/26 02:07:27;;;;;;;;;19.75;17.75;;;;;;;;5091590;27;45371;-73
2022/03/26 02:09:53;;;;;;;;;20.25;19.75;;;;;;;;5093310;27;45380;-72
2022/03/26 02:12:21;;;;;;;;;25.50;19.00;;;;;;;;5093683;27;45294;-72
2022/03/26 02:14:46;;;;;;;;;22.00;18.00;;;;;;;;5093955;27;45302;-73
2022/03/26 02:17:11;;;;;;;;;19.00;18.50;;;;;;;;5095860;27;45450;-72
2022/03/26 02:19:37;;;;;;;;;19.75;18.75;;;;;;;;5091251;27;45334;-72
2022/03/26 02:22:02;;;;;;;;;19.50;15.25;;;;;;;;5093304;27;46042;-73
2022/03/26 02:24:28;;;;;;;;;21.25;19.00;;;;;;;;5095184;27;45388;-73
2022/03/26 02:26:54;;;;;;;;;19.25;18.25;;;;;;;;5095364;27;45441;-73
2022/03/26 02:29:19;;;;;;;;;20.25;18.00;;;;;;;;5095241;27;45606;-73
2022/03/26 02:31:44;;;;;;;;;16.25;14.00;;;;;;;;5092830;27;46132;-72
2022/03/26 02:34:10;;;;;;;;;17.50;16.50;;;;;;;;5093701;27;45483;-73
2022/03/26 02:36:35;;;;;;;;;22.00;19.75;;;;;;;;5093366;27;45484;-72
2022/03/26 02:39:00;;;;;;;;;21.00;19.25;;;;;;;;5094102;27;45336;-71
2022/03/26 02:41:25;;;;;;;;;20.00;15.25;;;;;;;;5098324;27;46271;-73
2022/03/26 02:43:51;;;;;;;;;17.25;17.25;;;;;;;;5095428;27;45414;-73
2022/03/26 02:46:16;;;;;;;;;23.25;20.75;;;;;;;;5095958;27;45288;-72
2022/03/26 02:48:44;;;;;;;;;19.25;16.50;;;;;;;;5095737;27;45444;-73
2022/03/26 02:51:09;;;;;;;;;21.50;19.00;;;;;;;;5095667;27;46190;-72
2022/03/26 02:53:34;;;;;;;;;20.00;18.00;;;;;;;;5078786;27;45503;-73
2022/03/26 02:55:59;;;;;;;;;22.25;20.00;;;;;;;;5096609;27;45255;-73
2022/03/26 02:58:25;;;;;;;;;19.75;18.50;;;;;;;;5079599;27;45515;-73
2022/03/26 03:00:50;;;;;;;;;20.25;15.75;;;;;;;;5096267;27;46013;-73
2022/03/26 03:03:16;;;;;;;;;18.25;17.75;;;;;;;;5095463;27;45677;-73
2022/03/26 03:05:41;;;;;;;;;19.50;18.25;;;;;;;;5096610;27;45521;-73
2022/03/26 03:08:06;;;;;;;;;20.25;19.25;;;;;;;;5099060;27;45326;-73
2022/03/26 03:10:32;;;;;;;;;19.00;17.25;;;;;;;;5097123;27;47057;-73
2022/03/26 03:12:57;;;;;;;;;20.75;20.75;;;;;;;;5094781;27;45506;-73
2022/03/26 03:15:23;;;;;;;;;27.25;23.00;;;;;;;;5096397;27;45588;-73
2022/03/26 03:17:49;;;;;;;;;21.50;19.50;;;;;;;;5096662;27;45423;-73
2022/03/26 03:20:14;;;;;;;;;24.75;20.00;;;;;;;;5085417;27;47150;-73
2022/03/26 03:22:40;;;;;;;;;22.00;19.50;;;;;;;;5095167;27;45407;-73
2022/03/26 03:25:06;;;;;;;;;22.25;19.00;;;;;;;;5094980;27;45419;-73
2022/03/26 03:27:32;;;;;;;;;21.00;20.75;;;;;;;;5095842;27;45539;-73
2022/03/26 03:29:57;;;;;;;;;26.75;22.00;;;;;;;;5094735;27;46320;-73
2022/03/26 03:32:22;;;;;;;;;25.50;21.75;;;;;;;;5098588;27;45330;-73
2022/03/26 03:34:47;;;;;;;;;21.50;18.25;;;;;;;;5094237;27;45196;-73
2022/03/26 03:37:13;;;;;;;;;23.25;21.00;;;;;;;;5096132;27;45375;-73
2022/03/26 03:39:38;;;;;;;;;24.50;20.75;;;;;;;;5094442;27;45437;-73
2022/03/26 03:42:04;;;;;;;;;26.50;22.50;;;;;;;;5087697;27;45499;-73
2022/03/26 03:44:29;;;;;;;;;21.75;21.00;;;;;;;;5096786;27;45220;-73
2022/03/26 03:46:54;;;;;;;;;19.25;17.50;;;;;;;;5087551;27;45402;-73
2022/03/26 03:49:19;;;;;;;;;20.75;20.50;;;;;;;;5090720;27;45346;-73
2022/03/26 03:51:45;;;;;;;;;27.25;23.50;;;;;;;;5094154;27;45462;-73
2022/03/26 03:54:10;;;;;;;;;23.25;22.00;;;;;;;;5085344;27;45503;-73
2022/03/26 03:56:35;;;;;;;;;22.75;19.75;;;;;;;;5096423;27;45561;-73
2022/03/26 03:59:00;;;;;;;;;20.75;19.25;;;;;;;;5097381;27;46139;-73
2022/03/26 04:01:26;;;;;;;;;26.25;20.75;;;;;;;;5095608;27;45340;-72
2022/03/26 04:03:51;;;;;;;;;24.75;22.75;;;;;;;;5095926;27;45311;-73
2022/03/26 04:06:17;;;;;;;;;19.50;19.00;;;;;;;;5095943;27;45233;-72
2022/03/26 04:08:42;;;;;;;;;22.50;20.00;;;;;;;;5094978;27;45264;-73
2022/03/26 04:11:08;;;;;;;;;21.75;20.75;;;;;;;;5097832;27;45313;-73
2022/03/26 04:13:33;;;;;;;;;20.50;20.00;;;;;;;;5093598;27;45650;-73
2022/03/26 04:15:58;;;;;;;;;20.75;18.00;;;;;;;;5095504;27;45370;-73
2022/03/26 04:18:23;;;;;;;;;23.50;20.75;;;;;;;;5093406;27;46114;-73
2022/03/26 04:20:49;;;;;;;;;24.25;21.50;;;;;;;;5094239;27;45501;-72
2022/03/26 04:23:15;;;;;;;;;25.75;22.00;;;;;;;;5097192;27;45481;-72
2022/03/26 04:25:40;;;;;;;;;21.00;19.75;;;;;;;;5095422;27;45451;-73
2022/03/26 04:28:06;;;;;;;;;21.50;18.00;;;;;;;;5092576;27;45939;-72
2022/03/26 04:30:31;;;;;;;;;23.50;21.00;;;;;;;;5095258;27;45362;-73
2022/03/26 04:32:56;;;;;;;;;23.00;20.00;;;;;;;;5095429;27;45405;-72
2022/03/26 04:35:22;;;;;;;;;21.50;20.50;;;;;;;;5097692;27;45416;-73
2022/03/26 04:37:47;;;;;;;;;23.50;21.00;;;;;;;;5094765;27;46801;-73
2022/03/26 04:40:14;;;;;;;;;24.75;24.75;;;;;;;;5093589;27;46261;-72
2022/03/26 04:42:39;;;;;;;;;22.75;20.25;;;;;;;;5094772;27;45508;-73
2022/03/26 04:45:05;;;;;;;;;17.75;16.25;;;;;;;;5094956;27;45553;-73
2022/03/26 04:47:30;;;;;;;;;23.50;20.25;;;;;;;;5095362;27;46112;-73
2022/03/26 04:49:55;;;;;;;;;23.00;21.50;;;;;;;;5094710;27;45271;-73
2022/03/26 04:52:21;;;;;;;;;21.50;21.00;;;;;;;;5095107;27;45604;-72
2022/03/26 04:54:48;;;;;;;;;23.50;21.25;;;;;;;;5093991;27;45711;-73
2022/03/26 04:57:13;;;;;;;;;24.75;21.75;;;;;;;;5094847;27;45564;-73
2022/03/26 04:59:38;;;;;;;;;21.50;19.00;;;;;;;;5094570;27;45365;-73
2022/03/26 05:02:04;;;;;;;;;21.00;19.00;;;;;;;;5093670;27;45508;-73
2022/03/26 05:04:29;;;;;;;;;21.00;19.25;;;;;;;;5093030;27;45487;-73
2022/03/26 05:06:54;;;;;;;;;23.25;19.25;;;;;;;;5093967;27;45457;-73
2022/03/26 05:09:19;;;;;;;;;20.25;19.75;;;;;;;;5092376;27;45458;-73
2022/03/26 05:11:45;;;;;;;;;23.75;18.75;;;;;;;;5095713;27;45473;-72
2022/03/26 05:14:10;;;;;;;;;23.25;22.25;;;;;;;;5096805;27;45503;-73
2022/03/26 05:16:35;;;;;;;;;22.50;21.00;;;;;;;;5091826;27;45523;-73
2022/03/26 05:19:00;;;;;;;;;20.00;19.50;;;;;;;;5093410;27;45462;-73
2022/03/26 05:21:26;;;;;;;;;19.25;19.25;;;;;;;;5092986;27;45566;-73
2022/03/26 05:23:51;;;;;;;;;21.75;19.75;;;;;;;;5092807;27;45620;-72
2022/03/26 05:26:18;;;;;;;;;22.75;21.75;;;;;;;;5095811;27;46337;-72
2022/03/26 05:28:44;;;;;;;;;20.25;19.50;;;;;;;;5092384;27;45161;-73
2022/03/26 05:31:09;;;;;;;;;24.50;22.50;;;;;;;;5092146;27;45333;-73
2022/03/26 05:33:34;;;;;;;;;17.75;17.75;;;;;;;;5093704;27;45395;-73
2022/03/26 05:35:59;;;;;;;;;21.25;18.75;;;;;;;;5093793;27;45336;-73
2022/03/26 05:38:25;;;;;;;;;21.00;18.50;;;;;;;;5096128;27;45405;-73
2022/03/26 05:40:50;;;;;;;;;20.00;19.50;;;;;;;;5092856;27;45549;-73
2022/03/26 05:43:15;;;;;;;;;20.25;18.75;;;;;;;;5092521;27;45275;-73
2022/03/26 05:45:41;;;;;;;;;22.25;19.00;;;;;;;;5091858;27;45964;-73
2022/03/26 05:48:07;;;;;;;;;19.75;16.75;;;;;;;;5094048;27;45622;-73
2022/03/26 05:50:34;;;;;;;;;23.50;19.25;;;;;;;;5095426;27;45318;-72
2022/03/26 05:52:59;;;;;;;;;20.25;17.50;;;;;;;;5095452;27;45442;-73
2022/03/26 05:55:24;;;;;;;;;19.00;19.00;;;;;;;;5094476;27;46067;-73
2022/03/26 05:57:50;;;;;;;;;19.75;18.00;;;;;;;;5093422;27;45441;-73
2022/03/26 06:00:15;;;;;;;;;19.00;18.50;;;;;;;;5093882;27;45389;-73
2022/03/26 06:02:42;;;;;;;;;20.75;17.75;;;;;;;;5094934;27;45412;-73
2022/03/26 06:05:07;;;;;;;;;19.75;18.50;;;;;;;;5096232;27;46212;-73
2022/03/26 06:07:32;;;;;;;;;20.75;20.75;;;;;;;;5091987;27;45421;-73
2022/03/26 06:09:58;;;;;;;;;24.25;21.50;;;;;;;;5093560;27;45597;-72
2022/03/26 06:12:23;;;;;;;;;20.25;17.75;;;;;;;;5092252;27;45466;-73
2022/03/26 06:14:48;;;;;;;;;23.25;19.00;;;;;;;;5095909;27;46265;-73
2022/03/26 06:17:15;;;;;;;;;19.75;18.75;;;;;;;;5099660;27;45354;-72
2022/03/26 06:19:40;;;;;;;;;17.75;17.75;;;;;;;;5097894;27;45397;-73
2022/03/26 06:22:05;;;;;;;;;22.50;19.75;;;;;;;;5095825;27;45536;-73
2022/03/26 06:24:30;;;;;;;;;18.25;16.75;;;;;;;;5097932;27;45306;-73
2022/03/26 06:26:56;;;;;;;;;20.00;17.50;;;;;;;;5098476;27;45578;-73
2022/03/26 06:29:21;;;;;;;;;17.75;17.25;;;;;;;;5099479;27;45602;-72
2022/03/26 06:31:46;;;;;;;;;20.50;19.75;;;;;;;;5095325;27;45631;-73
2022/03/26 06:34:12;;;;;;;;;18.25;16.50;;;;;;;;5096830;27;45891;-73
2022/03/26 06:36:37;;;;;;;;;21.75;19.25;;;;;;;;5091241;27;45618;-72
2022/03/26 06:39:03;;;;;;;;;19.50;19.25;;;;;;;;5096255;27;45952;-72
2022/03/26 06:41:29;;;;;;;;;19.00;19.00;;;;;;;;5098392;27;45487;-72
2022/03/26 06:43:54;;;;;;;;;21.00;18.00;;;;;;;;5096335;27;45391;-72
2022/03/26 06:46:19;;;;;;;;;19.75;15.75;;;;;;;;5095348;27;45370;-72
2022/03/26 06:48:44;;;;;;;;;22.00;20.25;;;;;;;;5095733;27;45506;-73
2022/03/26 06:51:09;;;;;;;;;22.00;19.25;;;;;;;;5096623;27;45501;-72
2022/03/26 06:53:35;;;;;;;;;16.50;16.50;;;;;;;;5098030;27;45532;-73
2022/03/26 06:56:01;;;;;;;;;16.25;15.00;;;;;;;;5098572;27;45257;-73
2022/03/26 06:58:26;;;;;;;;;18.00;16.25;;;;;;;;5094665;27;45401;-73
2022/03/26 07:00:52;;;;;;;;;17.25;15.50;;;;;;;;5094710;27;45371;-73
2022/03/26 07:03:17;;;;;;;;;20.00;18.00;;;;;;;;5094666;27;45959;-72
2022/03/26 07:05:43;;;;;;;;;18.25;17.50;;;;;;;;5096752;27;45352;-72
2022/03/26 07:08:09;;;;;;;;;17.75;15.75;;;;;;;;5099130;27;45258;-73
2022/03/26 07:10:34;;;;;;;;;21.25;18.00;;;;;;;;5097767;27;45287;-73
2022/03/26 07:12:59;;;;;;;;;18.75;17.50;;;;;;;;5097420;27;45300;-72
2022/03/26 07:15:25;;;;;;;;;18.00;16.75;;;;;;;;5097455;27;45351;-72
2022/03/26 07:17:50;;;;;;;;;21.25;18.75;;;;;;;;5097536;27;45406;-73
2022/03/26 07:20:15;;;;;;;;;23.00;17.75;;;;;;;;5098675;27;45416;-73
2022/03/26 07:22:41;;;;;;;;;18.25;18.00;;;;;;;;5093693;27;46049;-73
2022/03/26 07:25:06;;;;;;;;;22.50;18.75;;;;;;;;5093890;27;45399;-73
2022/03/26 07:27:32;;;;;;;;;19.25;18.25;;;;;;;;5095109;27;45346;-73
2022/03/26 07:29:57;;;;;;;;;20.75;18.25;;;;;;;;5095974;27;45240;-72
2022/03/26 07:32:23;;;;;;;;;19.50;17.25;;;;;;;;5098778;27;46276;-72
2022/03/26 07:34:48;;;;;;;;;18.25;17.50;;;;;;;;5095957;27;45429;-73
2022/03/26 07:37:14;;;;;;;;;17.75;16.75;;;;;;;;5096284;27;45406;-72
2022/03/26 07:39:39;;;;;;;;;21.00;17.50;;;;;;;;5096126;27;45459;-72
2022/03/26 07:42:04;;;;;;;;;19.00;18.25;;;;;;;;5093464;27;46013;-73
2022/03/26 07:44:29;;;;;;;;;17.50;17.50;;;;;;;;5097182;27;45360;-72
2022/03/26 07:46:55;;;;;;;;;19.25;18.75;;;;;;;;5095130;27;45382;-72
2022/03/26 07:49:20;;;;;;;;;20.50;17.25;;;;;;;;5094790;27;48459;-73
2022/03/26 07:51:45;;;;;;;;;20.50;19.50;;;;;;;;5095851;27;45424;-73
2022/03/26 07:54:10;;;;;;;;;17.75;16.50;;;;;;;;5097089;27;45370;-73
2022/03/26 07:56:35;;;;;;;;;19.75;15.75;;;;;;;;5096635;27;45403;-73
2022/03/26 07:59:01;;;;;;;;;20.00;17.50;;;;;;;;5094850;27;45858;-73
2022/03/26 08:01:27;;;;;;;;;22.75;18.50;;;;;;;;5095467;27;46095;-72
2022/03/26 08:03:54;;;;;;;;;22.50;18.25;;;;;;;;5093825;27;45413;-72
2022/03/26 08:06:22;;;;;;;;;17.50;16.25;;;;;;;;5095622;27;45485;-72
2022/03/26 08:08:47;;;;;;;;;16.50;15.50;;;;;;;;5091467;27;45342;-73
2022/03/26 08:11:13;;;;;;;;;17.75;17.00;;;;;;;;5077078;28;46301;-72
2022/03/26 08:13:38;;;;;;;;;22.00;17.75;;;;;;;;5073545;28;45586;-72
2022/03/26 08:16:04;;;;;;;;;19.25;17.00;;;;;;;;5073087;28;45525;-73
2022/03/26 08:18:29;;;;;;;;;19.50;15.50;;;;;;;;5063995;28;45237;-72
2022/03/26 08:20:54;;;;;;;;;19.50;14.50;;;;;;;;5075138;28;45563;-72
2022/03/26 08:23:20;;;;;;;;;16.25;16.25;;;;;;;;5076572;28;45375;-73
2022/03/26 08:28:29;;;;;;;;;18.75;18.00;;;;;;;;5074594;28;45482;-72
2022/03/26 08:30:54;;;;;;;;;18.25;15.50;;;;;;;;5074567;28;46992;-73
2022/03/26 08:33:19;;;;;;;;;19.25;18.25;;;;;;;;5074809;28;45403;-72
2022/03/26 08:35:45;;;;;;;;;19.00;16.00;;;;;;;;5074813;28;45590;-72
2022/03/26 08:38:10;;;;;;;;;16.25;14.00;;;;;;;;5074303;28;45475;-72
2022/03/26 08:40:35;;;;;;;;;14.00;11.75;;;;;;;;5074586;28;47071;-73
2022/03/26 08:43:01;;;;;;;;;17.25;15.75;;;;;;;;5074587;28;45360;-72
2022/03/26 08:45:26;;;;;;;;;15.00;15.00;;;;;;;;5084044;27;45338;-73
2022/03/26 08:47:52;;;;;;;;;21.25;18.50;;;;;;;;5074430;28;45687;-72
2022/03/26 08:50:17;;;;;;;;;19.75;17.00;;;;;;;;5076580;28;46172;-72
2022/03/26 08:52:42;;;;;;;;;14.75;14.25;;;;;;;;5074456;28;45480;-72
2022/03/26 08:55:08;;;;;;;;;16.00;16.00;;;;;;;;5075471;27;45410;-72
2022/03/26 08:57:33;;;;;;;;;15.50;14.75;;;;;;;;5074480;28;45506;-72
2022/03/26 08:59:58;;;;;;;;;16.25;14.00;;;;;;;;5072688;28;46117;-72
2022/03/26 09:02:24;;;;;;;;;20.25;16.75;;;;;;;;5076892;28;45212;-72
2022/03/26 09:04:49;;;;;;;;;21.75;18.50;;;;;;;;5074479;28;45506;-72
2022/03/26 09:07:14;;;;;;;;;19.50;15.25;;;;;;;;5074240;28;45401;-72
2022/03/26 09:09:40;;;;;;;;;17.25;16.50;;;;;;;;5084351;27;45457;-72
2022/03/26 09:12:05;;;;;;;;;17.25;17.25;;;;;;;;5094473;27;45396;-73
2022/03/26 09:14:30;;;;;;;;;18.00;16.50;;;;;;;;5096021;27;45358;-73
2022/03/26 09:16:55;;;;;;;;;16.00;13.00;;;;;;;;5092672;27;45285;-73
2022/03/26 09:19:21;;;;;;;;;16.50;15.00;;;;;;;;5095638;27;46172;-73
2022/03/26 09:21:46;;;;;;;;;19.00;16.75;;;;;;;;5092984;27;45190;-75
2022/03/26 09:24:13;;;;;;;;;16.25;15.50;;;;;;;;5095506;27;45280;-73
2022/03/26 09:26:39;;;;;;;;;18.25;17.25;;;;;;;;5095726;27;45487;-75
2022/03/26 09:29:04;;;;;;;;;17.25;15.75;;;;;;;;5096610;27;45480;-77
2022/03/26 09:31:29;;;;;;;;;29.50;25.50;;;;;;;;5091724;27;45645;-77
2022/03/26 09:33:54;;;;;;;;;21.25;18.25;;;;;;;;5093643;27;45466;-76
2022/03/26 09:36:20;;;;;;;;;17.50;16.25;;;;;;;;5092280;27;45346;-76
2022/03/26 09:38:45;;;;;;;;;18.50;15.75;;;;;;;;5093969;27;45499;-76
2022/03/26 09:41:10;;;;;;;;;21.25;20.25;;;;;;;;5096324;27;45426;-76
2022/03/26 09:43:35;;;;;;;;;19.00;18.00;;;;;;;;5092543;27;45487;-76
2022/03/26 09:46:01;;;;;;;;;22.25;18.00;;;;;;;;5093489;27;45545;-76
2022/03/26 09:48:26;;;;;;;;;17.25;16.00;;;;;;;;5083080;27;46062;-76
2022/03/26 09:50:52;;;;;;;;;18.25;15.75;;;;;;;;5092495;27;45450;-76
2022/03/26 09:53:18;;;;;;;;;19.25;19.25;;;;;;;;5094976;27;45289;-76
2022/03/26 09:55:43;;;;;;;;;20.25;17.75;;;;;;;;5091758;27;45464;-75
2022/03/26 09:58:08;;;;;;;;;17.00;17.00;;;;;;;;5091627;27;45306;-76
2022/03/26 10:00:33;;;;;;;;;18.25;15.75;;;;;;;;5091791;27;45382;-76
2022/03/26 10:02:59;;;;;;;;;20.25;16.50;;;;;;;;5091697;27;45660;-76
2022/03/26 10:05:30;;;;;;;;;18.75;16.75;;;;;;;;5095570;27;45323;-76
2022/03/26 10:07:55;;;;;;;;;20.75;17.25;;;;;;;;5092629;27;46406;-76
2022/03/26 10:10:22;;;;;;;;;18.50;16.50;;;;;;;;5091401;27;45337;-76
2022/03/26 10:12:50;;;;;;;;;18.00;15.50;;;;;;;;5093508;27;45280;-76
2022/03/26 10:15:15;;;;;;;;;18.50;18.25;;;;;;;;5091945;27;45455;-75
2022/03/26 10:17:41;;;;;;;;;17.25;16.75;;;;;;;;5093903;27;47232;-75
2022/03/26 10:20:08;;;;;;;;;17.50;17.00;;;;;;;;5088881;27;45423;-76
2022/03/26 10:22:33;;;;;;;;;18.75;18.75;;;;;;;;5090929;27;45323;-78
2022/03/26 10:24:59;;;;;;;;;20.75;19.75;;;;;;;;5092590;27;45445;-76
2022/03/26 10:27:25;;;;;;;;;20.25;18.00;;;;;;;;5091333;27;45397;-77
2022/03/26 10:29:54;;;;;;;;;32.25;26.50;;;;;;;;5093776;27;45340;-76
2022/03/26 10:35:07;;;;;;;;;43.75;32.75;;;;;;;;5086375;27;45364;-76
2022/03/26 10:37:42;;;;;;;;;43.75;34.50;;;;;;;;5091710;27;45579;-76
2022/03/26 10:40:21;;;;;;;;;34.00;25.25;;;;;;;;5090078;27;45312;-77
2022/03/26 10:42:56;;;;;;;;;36.00;29.50;;;;;;;;5089298;27;45511;-77
2022/03/26 10:45:22;;;;;;;;;39.75;30.50;;;;;;;;5090717;27;45318;-76
2022/03/26 10:47:50;;;;;;;;;39.50;34.25;;;;;;;;5085368;27;46372;-76
2022/03/26 10:50:15;;;;;;;;;39.75;34.50;;;;;;;;5090722;27;45509;-76
2022/03/26 10:52:42;;;;;;;;;44.25;34.00;;;;;;;;5091197;27;45296;-76
2022/03/26 10:55:17;;;;;;;;;42.00;34.75;;;;;;;;5091293;27;45431;-77
2022/03/26 10:57:44;;;;;;;;;40.75;34.25;;;;;;;;5090433;27;45473;-78
2022/03/26 11:00:10;;;;;;;;;43.75;34.75;;;;;;;;5087751;27;45542;-77
2022/03/26 11:02:35;;;;;;;;;44.25;32.50;;;;;;;;5097199;27;45332;-78
2022/03/26 11:05:01;;;;;;;;;36.00;30.50;;;;;;;;5096505;27;45498;-76
2022/03/26 11:07:26;;;;;;;;;35.25;30.25;;;;;;;;5091660;27;46190;-79
2022/03/26 11:09:52;;;;;;;;;31.75;26.00;;;;;;;;5095689;27;45279;-80
2022/03/26 11:12:18;;;;;;;;;29.25;27.25;;;;;;;;5091295;27;45517;-78
2022/03/26 11:14:44;;;;;;;;;33.50;27.25;;;;;;;;5089923;27;45487;-77
2022/03/26 11:17:45;;;;;;;;;32.25;25.00;;;;;;;;5092480;27;46400;-77
2022/03/26 11:20:17;;;;;;;;;29.50;27.75;;;;;;;;5014537;28;45353;-77
2022/03/26 11:22:51;;;;;;;;;29.00;25.50;;;;;;;;5013097;28;45306;-78
2022/03/26 11:25:38;;;;;;;;;27.50;26.00;;;;;;;;5013657;28;45515;-77
2022/03/26 11:28:21;;;;;;;;;34.25;27.75;;;;;;;;5011811;28;46475;-77
2022/03/26 11:31:07;;;;;;;;;31.50;28.25;;;;;;;;5011693;28;45616;-78
2022/03/26 11:33:34;;;;;;;;;30.50;24.75;;;;;;;;5013251;28;45507;-78
2022/03/26 11:36:00;;;;;;;;;23.75;22.00;;;;;;;;5013808;28;45569;-78
2022/03/26 11:38:28;;;;;;;;;30.25;27.75;;;;;;;;5014759;28;45398;-78
2022/03/26 11:40:57;;;;;;;;;24.25;24.00;;;;;;;;5011069;28;45570;-76
2022/03/26 11:43:41;;;;;;;;;26.75;23.75;;;;;;;;5014520;28;45595;-76
2022/03/26 11:51:35;;;;;;;;;26.50;22.75;;;;;;;;5014082;28;45396;-77
2022/03/26 11:54:05;;;;;;;;;24.75;21.75;;;;;;;;5026963;27;45406;-76
2022/03/26 11:56:31;;;;;;;;;29.00;23.75;;;;;;;;5095235;27;45390;-76
2022/03/26 11:59:03;;;;;;;;;22.50;22.00;;;;;;;;5084609;27;46407;-76
2022/03/26 12:01:38;;;;;;;;;24.25;22.75;;;;;;;;5084106;27;45558;-76
2022/03/26 12:04:09;;;;;;;;;27.00;23.50;;;;;;;;5088547;27;45444;-76
2022/03/26 12:06:51;;;;;;;;;23.25;20.50;;;;;;;;5083350;27;45307;-75
2022/03/26 12:09:33;;;;;;;;;21.50;21.00;;;;;;;;5094693;27;47041;-75
2022/03/26 12:12:04;;;;;;;;;22.00;20.75;;;;;;;;5080362;27;45351;-75
2022/03/26 12:14:29;;;;;;;;;24.50;22.25;;;;;;;;5097223;27;45360;-75
2022/03/26 12:16:55;;;;;;;;;19.75;18.00;;;;;;;;5095179;27;45590;-76
2022/03/26 12:19:36;;;;;;;;;25.25;21.00;;;;;;;;5088125;27;45976;-79
2022/03/26 12:22:27;;;;;;;;;35.50;29.50;;;;;;;;5087363;27;45528;-77
2022/03/26 12:24:56;;;;;;;;;30.50;28.50;;;;;;;;5081458;27;45512;-77
2022/03/26 12:27:22;;;;;;;;;27.50;24.00;;;;;;;;5090231;27;45334;-77
2022/03/26 12:29:47;;;;;;;;;19.50;19.50;;;;;;;;5088962;27;46108;-77
2022/03/26 12:32:13;;;;;;;;;29.00;26.50;;;;;;;;5088276;27;45984;-78
2022/03/26 12:34:52;;;;;;;;;27.00;26.25;;;;;;;;5084377;27;45773;-77
2022/03/26 12:37:17;;;;;;;;;27.50;25.50;;;;;;;;5084738;27;45432;-78
2022/03/26 12:39:46;;;;;;;;;34.25;29.00;;;;;;;;5088263;27;46299;-77
2022/03/26 12:42:11;;;;;;;;;26.75;24.00;;;;;;;;5084084;27;45393;-77
2022/03/26 12:44:36;;;;;;;;;26.25;24.50;;;;;;;;5086309;27;45343;-77
2022/03/26 12:47:02;;;;;;;;;27.75;24.00;;;;;;;;5090158;27;45442;-77
2022/03/26 12:49:28;;;;;;;;;28.25;22.50;;;;;;;;5092314;27;45492;-77
2022/03/26 12:51:53;;;;;;;;;27.75;23.00;;;;;;;;5091871;27;45493;-77
2022/03/26 12:54:19;;;;;;;;;24.75;24.00;;;;;;;;5077321;27;45558;-77
2022/03/26 12:56:44;;;;;;;;;28.25;25.50;;;;;;;;5085234;27;45342;-78
2022/03/26 12:59:13;;;;;;;;;27.50;24.50;;;;;;;;5095168;27;45516;-77
2022/03/26 13:01:38;;;;;;;;;27.00;23.75;;;;;;;;5084089;27;45605;-77
2022/03/26 13:04:03;;;;;;;;;27.25;24.00;;;;;;;;5088491;27;45544;-78
2022/03/26 13:06:29;;;;;;;;;22.50;21.25;;;;;;;;5094914;27;45524;-78
2022/03/26 13:08:55;;;;;;;;;27.00;25.50;;;;;;;;5086564;27;46188;-77
2022/03/26 13:11:21;;;;;;;;;27.25;26.25;;;;;;;;5095923;27;45565;-77
2022/03/26 13:13:48;;;;;;;;;24.25;19.50;;;;;;;;5084480;27;45196;-78
2022/03/26 13:16:15;;;;;;;;;22.50;20.50;;;;;;;;5087557;27;45566;-78
2022/03/26 13:18:41;;;;;;;;;25.25;23.25;;;;;;;;5094797;27;47245;-77
2022/03/26 13:21:07;;;;;;;;;35.50;24.00;;;;;;;;5094515;27;45369;-74
2022/03/26 13:23:32;;;;;;;;;23.50;20.75;;;;;;;;5095294;27;45481;-75
2022/03/26 13:25:57;;;;;;;;;23.00;21.00;;;;;;;;5095632;27;45272;-71
2022/03/26 13:28:23;;;;;;;;;21.50;20.50;;;;;;;;5090906;27;46152;-70
2022/03/26 13:30:49;;;;;;;;;26.50;20.00;;;;;;;;5092595;27;45307;-70
2022/03/26 13:33:15;;;;;;;;;22.00;17.00;;;;;;;;5094137;27;45378;-71
2022/03/26 13:35:45;;;;;;;;;22.75;19.50;;;;;;;;5094353;27;45423;-69
2022/03/26 13:38:11;;;;;;;;;25.00;19.50;;;;;;;;5095116;27;45380;-68
2022/03/26 13:40:36;;;;;;;;;28.00;24.25;;;;;;;;5092781;27;45381;-69
2022/03/26 13:43:02;;;;;;;;;23.00;21.00;;;;;;;;5090881;27;45576;-68
2022/03/26 13:45:28;;;;;;;;;25.00;22.50;;;;;;;;5092516;27;45482;-68
2022/03/26 13:47:56;;;;;;;;;24.75;21.75;;;;;;;;5093745;27;45329;-68
2022/03/26 13:50:22;;;;;;;;;22.75;22.00;;;;;;;;5095852;27;45503;-70
2022/03/26 13:52:49;;;;;;;;;25.75;21.00;;;;;;;;5092204;27;45282;-70
2022/03/26 13:55:28;;;;;;;;;23.75;21.25;;;;;;;;5092397;27;45242;-68
2022/03/26 13:57:54;;;;;;;;;27.25;21.50;;;;;;;;5093127;27;47226;-69
2022/03/26 14:00:21;;;;;;;;;26.75;21.75;;;;;;;;5092889;27;45443;-68
2022/03/26 14:02:47;;;;;;;;;30.50;24.25;;;;;;;;5093825;27;45566;-70
2022/03/26 14:05:34;;;;;;;;;22.50;18.50;;;;;;;;5094171;27;45733;-68
2022/03/26 14:08:00;;;;;;;;;26.50;21.75;;;;;;;;5094439;27;46177;-69
2022/03/26 14:10:32;;;;;;;;;27.75;24.00;;;;;;;;5091567;27;45543;-69
2022/03/26 14:12:57;;;;;;;;;31.00;24.75;;;;;;;;5090212;27;45484;-69
2022/03/26 14:15:22;;;;;;;;;24.00;21.25;;;;;;;;5093558;27;45355;-68
2022/03/26 14:17:47;;;;;;;;;26.75;22.75;;;;;;;;5092699;27;46069;-69
2022/03/26 14:20:13;;;;;;;;;21.25;19.25;;;;;;;;5095718;27;45383;-69
2022/03/26 14:22:38;;;;;;;;;24.25;22.50;;;;;;;;5091970;27;45457;-69